Rola — J8Y3743 — position and weather

sailwx.info

Track history (hours):
 
Tides and Currents Weather Stations Pressure Air Temp Water Temp Dewpoint Dewpoint Depression Visibility Wind Speed Wind Dir Waves Ship Positions

Rola

Last reported at 2015-Aug-02 17:25 UTC. Time now 2015-Aug-03 02:41 UTC.
Position N 43°39' E 007°20'.

Length 47 m; draft 3.2 m.

Type: Pleasure craft. MMSI: 375275000.

Date/timePositionNaut miles runAvg speedWind from/ knotsBaromVisibWave heightAir tempDewpointWater temp
2015-Aug-02 17:25N 43°39' E 007°20'1112.6
2015-Aug-02 16:33N 43°32' E 007°08'4 0.9
2015-Aug-02 12:29N 43°32' E 007°03'5 4.5
2015-Aug-02 11:28N 43°31' E 006°57'0 0.0
2015-Aug-02 10:33N 43°31' E 006°57'0 0.0
2015-Aug-02 09:27N 43°31' E 006°57'0 0.0
2015-Aug-02 08:33N 43°31' E 006°57'0 0.0
2015-Aug-02 07:32N 43°31' E 006°57'0 0.0
2015-Aug-02 06:18N 43°31' E 006°57'0 0.0
2015-Aug-02 05:32N 43°31' E 006°57'0 0.0
2015-Aug-02 04:33N 43°31' E 006°57'0 0.0
2015-Aug-02 03:27N 43°31' E 006°57'0 0.0
2015-Aug-02 02:33N 43°31' E 006°57'0 0.0
2015-Aug-02 01:33N 43°31' E 006°57'0 0.0
2015-Aug-02 00:33N 43°31' E 006°57'0 0.0
2015-Aug-01 23:33N 43°31' E 006°57'0 0.0
2015-Aug-01 22:33N 43°31' E 006°57'0 0.0
2015-Aug-01 21:30N 43°31' E 006°57'0 0.0
2015-Aug-01 20:33N 43°31' E 006°57'4 3.9
2015-Aug-01 19:33N 43°27' E 006°57'1312.8
2015-Aug-01 18:33N 43°19' E 006°43'4 3.3
2015-Aug-01 17:26N 43°17' E 006°39'4 3.9
2015-Aug-01 16:27N 43°13' E 006°40'4 1.0
2015-Aug-01 12:27N 43°17' E 006°40'1 0.0
2015-Jul-30 18:14N 43°16' E 006°38'3 4.4
2015-Jul-30 17:33N 43°14' E 006°40'0 0.0
2015-Jul-30 16:33N 43°14' E 006°40'0 0.0
2015-Jul-30 15:34N 43°14' E 006°40'0 0.0
2015-Jul-30 14:33N 43°14' E 006°40'0 0.0
2015-Jul-30 13:33N 43°14' E 006°40'3 3.5
2015-Jul-30 12:34N 43°17' E 006°41'2 0.1
2015-Jul-29 16:33N 43°16' E 006°38'3 2.6
2015-Jul-29 15:33N 43°14' E 006°41'0 0.0
2015-Jul-29 14:33N 43°14' E 006°41'0 0.1
2015-Jul-29 13:33N 43°14' E 006°41'5 5.3
2015-Jul-29 12:33N 43°18' E 006°46'1010.4
2015-Jul-29 11:33N 43°25' E 006°55'8 8.4
2015-Jul-29 10:33N 43°32' E 007°02'0 0.0
2015-Jul-29 09:31N 43°32' E 007°02'0 0.0
2015-Jul-29 08:33N 43°32' E 007°02'0 0.0
2015-Jul-29 07:33N 43°32' E 007°02'0 0.0
2015-Jul-29 06:15N 43°32' E 007°02'0 0.0
2015-Jul-29 05:32N 43°32' E 007°02'0 0.0
2015-Jul-29 02:24N 43°32' E 007°02'0 0.0
2015-Jul-29 01:12N 43°32' E 007°02'0 0.0
2015-Jul-29 00:29N 43°32' E 007°02'0 0.0
2015-Jul-28 22:15N 43°32' E 007°02'0 0.0
2015-Jul-28 21:26N 43°32' E 007°02'0 0.0
2015-Jul-28 20:11N 43°32' E 007°02'0 0.0
2015-Jul-28 19:33N 43°32' E 007°02'0 0.0
2015-Jul-28 18:33N 43°32' E 007°02'0 0.0
2015-Jul-28 17:33N 43°32' E 007°02'0 0.0
2015-Jul-28 16:29N 43°32' E 007°02'0 0.0
2015-Jul-28 15:33N 43°32' E 007°02'0 0.0
2015-Jul-28 14:32N 43°32' E 007°02'0 0.0
2015-Jul-28 13:33N 43°32' E 007°02'0 0.0
2015-Jul-28 12:32N 43°32' E 007°02'0 0.0
2015-Jul-28 11:33N 43°32' E 007°02'0 0.0
2015-Jul-28 10:33N 43°32' E 007°02'0 0.0
2015-Jul-28 09:33N 43°32' E 007°02'0 0.0
2015-Jul-28 08:31N 43°32' E 007°02'0 0.0
2015-Jul-28 07:31N 43°32' E 007°02'0 0.0
2015-Jul-28 06:33N 43°32' E 007°02'0 0.0
2015-Jul-28 05:32N 43°32' E 007°02'0 0.0
2015-Jul-28 04:31N 43°32' E 007°02'0 0.0
2015-Jul-28 03:32N 43°32' E 007°02'0 0.0
2015-Jul-28 02:19N 43°32' E 007°02'0 0.0
2015-Jul-28 01:31N 43°32' E 007°02'0 0.0
2015-Jul-28 00:33N 43°32' E 007°02'0 0.0
2015-Jul-27 23:27N 43°32' E 007°02'0 0.0
2015-Jul-27 22:31N 43°32' E 007°02'0 0.0
2015-Jul-27 21:10N 43°32' E 007°02'0 0.0
2015-Jul-27 19:29N 43°32' E 007°02'0 0.0
2015-Jul-27 17:25N 43°32' E 007°02'0 0.0
2015-Jul-27 16:25N 43°32' E 007°02'0 0.0
2015-Jul-27 15:26N 43°32' E 007°02'0 0.0
2015-Jul-27 14:33N 43°32' E 007°02'0 0.0
2015-Jul-27 13:33N 43°32' E 007°02'0 0.0
2015-Jul-27 12:33N 43°32' E 007°02'5 4.6
2015-Jul-27 11:32N 43°29' E 006°58'1212.5
2015-Jul-27 10:34N 43°20' E 006°46'7 0.4
2015-Jul-26 17:04N 43°16' E 006°38'2 4.4
2015-Jul-26 16:34N 43°17' E 006°41'7 1.6
2015-Jul-26 12:14N 43°10' E 006°39'710.6
2015-Jul-26 11:33N 43°17' E 006°41'0 0.0
2015-Jul-24 21:34N 43°18' E 006°41'1616.0
2015-Jul-24 20:33N 43°17' E 007°03'7015.8
2015-Jul-24 16:08N 43°07' E 008°38'  
Track history (hours):
 
Tides and Currents Weather Stations Pressure Air Temp Water Temp Dewpoint Dewpoint Depression Visibility Wind Speed Wind Dir Waves Ship Positions

Rola

Last reported at 2015-Aug-02 17:25 UTC. Time now 2015-Aug-03 02:41 UTC.
Position N 43°39' E 007°20'.

Length 47 m; draft 3.2 m.

Type: Pleasure craft. MMSI: 375275000.

Date/timePositionNaut miles runAvg speedWind from/ knotsBaromVisibWave heightAir tempDewpointWater temp
2015-Aug-02 17:25N 43°39' E 007°20'1112.6
2015-Aug-02 16:33N 43°32' E 007°08'4 0.9
2015-Aug-02 12:29N 43°32' E 007°03'5 4.5
2015-Aug-02 11:28N 43°31' E 006°57'0 0.0
2015-Aug-02 10:33N 43°31' E 006°57'0 0.0
2015-Aug-02 09:27N 43°31' E 006°57'0 0.0
2015-Aug-02 08:33N 43°31' E 006°57'0 0.0
2015-Aug-02 07:32N 43°31' E 006°57'0 0.0
2015-Aug-02 06:18N 43°31' E 006°57'0 0.0
2015-Aug-02 05:32N 43°31' E 006°57'0 0.0
2015-Aug-02 04:33N 43°31' E 006°57'0 0.0
2015-Aug-02 03:27N 43°31' E 006°57'0 0.0
2015-Aug-02 02:33N 43°31' E 006°57'0 0.0
2015-Aug-02 01:33N 43°31' E 006°57'0 0.0
2015-Aug-02 00:33N 43°31' E 006°57'0 0.0
2015-Aug-01 23:33N 43°31' E 006°57'0 0.0
2015-Aug-01 22:33N 43°31' E 006°57'0 0.0
2015-Aug-01 21:30N 43°31' E 006°57'0 0.0
2015-Aug-01 20:33N 43°31' E 006°57'4 3.9
2015-Aug-01 19:33N 43°27' E 006°57'1312.8
2015-Aug-01 18:33N 43°19' E 006°43'4 3.3
2015-Aug-01 17:26N 43°17' E 006°39'4 3.9
2015-Aug-01 16:27N 43°13' E 006°40'4 1.0
2015-Aug-01 12:27N 43°17' E 006°40'1 0.0
2015-Jul-30 18:14N 43°16' E 006°38'3 4.4
2015-Jul-30 17:33N 43°14' E 006°40'0 0.0
2015-Jul-30 16:33N 43°14' E 006°40'0 0.0
2015-Jul-30 15:34N 43°14' E 006°40'0 0.0
2015-Jul-30 14:33N 43°14' E 006°40'0 0.0
2015-Jul-30 13:33N 43°14' E 006°40'3 3.5
2015-Jul-30 12:34N 43°17' E 006°41'2 0.1
2015-Jul-29 16:33N 43°16' E 006°38'3 2.6
2015-Jul-29 15:33N 43°14' E 006°41'0 0.0
2015-Jul-29 14:33N 43°14' E 006°41'0 0.1
2015-Jul-29 13:33N 43°14' E 006°41'5 5.3
2015-Jul-29 12:33N 43°18' E 006°46'1010.4
2015-Jul-29 11:33N 43°25' E 006°55'8 8.4
2015-Jul-29 10:33N 43°32' E 007°02'0 0.0
2015-Jul-29 09:31N 43°32' E 007°02'0 0.0
2015-Jul-29 08:33N 43°32' E 007°02'0 0.0
2015-Jul-29 07:33N 43°32' E 007°02'0 0.0
2015-Jul-29 06:15N 43°32' E 007°02'0 0.0
2015-Jul-29 05:32N 43°32' E 007°02'0 0.0
2015-Jul-29 02:24N 43°32' E 007°02'0 0.0
2015-Jul-29 01:12N 43°32' E 007°02'0 0.0
2015-Jul-29 00:29N 43°32' E 007°02'0 0.0
2015-Jul-28 22:15N 43°32' E 007°02'0 0.0
2015-Jul-28 21:26N 43°32' E 007°02'0 0.0
2015-Jul-28 20:11N 43°32' E 007°02'0 0.0
2015-Jul-28 19:33N 43°32' E 007°02'0 0.0
2015-Jul-28 18:33N 43°32' E 007°02'0 0.0
2015-Jul-28 17:33N 43°32' E 007°02'0 0.0
2015-Jul-28 16:29N 43°32' E 007°02'0 0.0
2015-Jul-28 15:33N 43°32' E 007°02'0 0.0
2015-Jul-28 14:32N 43°32' E 007°02'0 0.0
2015-Jul-28 13:33N 43°32' E 007°02'0 0.0
2015-Jul-28 12:32N 43°32' E 007°02'0 0.0
2015-Jul-28 11:33N 43°32' E 007°02'0 0.0
2015-Jul-28 10:33N 43°32' E 007°02'0 0.0
2015-Jul-28 09:33N 43°32' E 007°02'0 0.0
2015-Jul-28 08:31N 43°32' E 007°02'0 0.0
2015-Jul-28 07:31N 43°32' E 007°02'0 0.0
2015-Jul-28 06:33N 43°32' E 007°02'0 0.0
2015-Jul-28 05:32N 43°32' E 007°02'0 0.0
2015-Jul-28 04:31N 43°32' E 007°02'0 0.0
2015-Jul-28 03:32N 43°32' E 007°02'0 0.0
2015-Jul-28 02:19N 43°32' E 007°02'0 0.0
2015-Jul-28 01:31N 43°32' E 007°02'0 0.0
2015-Jul-28 00:33N 43°32' E 007°02'0 0.0
2015-Jul-27 23:27N 43°32' E 007°02'0 0.0
2015-Jul-27 22:31N 43°32' E 007°02'0 0.0
2015-Jul-27 21:10N 43°32' E 007°02'0 0.0
2015-Jul-27 19:29N 43°32' E 007°02'0 0.0
2015-Jul-27 17:25N 43°32' E 007°02'0 0.0
2015-Jul-27 16:25N 43°32' E 007°02'0 0.0
2015-Jul-27 15:26N 43°32' E 007°02'0 0.0
2015-Jul-27 14:33N 43°32' E 007°02'0 0.0
2015-Jul-27 13:33N 43°32' E 007°02'0 0.0
2015-Jul-27 12:33N 43°32' E 007°02'5 4.6
2015-Jul-27 11:32N 43°29' E 006°58'1212.5
2015-Jul-27 10:34N 43°20' E 006°46'7 0.4
2015-Jul-26 17:04N 43°16' E 006°38'2 4.4
2015-Jul-26 16:34N 43°17' E 006°41'7 1.6
2015-Jul-26 12:14N 43°10' E 006°39'710.6
2015-Jul-26 11:33N 43°17' E 006°41'0 0.0
2015-Jul-24 21:34N 43°18' E 006°41'1616.0
2015-Jul-24 20:33N 43°17' E 007°03'7015.8
2015-Jul-24 16:08N 43°07' E 008°38'  

Dump ship's entire track history